EHEH Airport Information

Runway Information
Runway 03 Length 9843 ft width 148 ft
Elevation 73 ft Threshold 821 ft Heading 31
Runway 21 Length 9843 ft Width 148 ft
Elevation 67 ft Threshold 821 ft Heading 213
Airport Frequencies
Type APP Name APP Frequency 123.175 MHZ
Type ATIS Name ATIS Frequency 126.025 MHZ
Type DIR Name DIRECTOR Frequency 124.525 MHZ
Type GND Name GND Frequency 121.925 MHZ
Type TWR Name TWR Frequency 131 MHZ
Airport Navaids
Type NDB Name Eindhoven Frequency 397 KHZ
Type TACAN Name Eindhoven Frequency 117200 KHZ
Airport Weather Information & NOTAM
ADDS - METARS form results

(2031 UTC 06 February 2023)
Data provider http://aviationweather.gov/metar/data/
 
METAR text: EHEH 062025Z AUTO 00000KT 3600 R03/3000U BR NCD 00/M00 Q1040 YLO BECMG 3500 BR MIFG
Conditions at: EHEH (EINDHOVEN RNLAFB, NL) observed 2025 UTC 06 February 2023
Temperature: 0.0°C (32°F)
Dewpoint: 0.0°C (32°F) [RH = 100%]
Pressure (altimeter): 30.71 inches Hg (1040.0 mb)
Winds: calm
Visibility: 2.24 miles (3.60 km)
Ceiling: at least 12,000 feet AGL
Clouds: sky clear below 12,000 feet AGL
Weather: BR  (mist)

METAR text: EHEH 062021Z AUTO 00000KT 3500 R03/P3000U BR NCD 01/00 Q1040 YLO BECMG 3500 BR MIFG
Conditions at: EHEH (EINDHOVEN RNLAFB, NL) observed 2021 UTC 06 February 2023
Temperature: 1.0°C (34°F)
Dewpoint: 0.0°C (32°F) [RH = 93%]
Pressure (altimeter): 30.71 inches Hg (1040.0 mb)
Winds: calm
Visibility: 2.17 miles (3.49 km)
Ceiling: at least 12,000 feet AGL
Clouds: sky clear below 12,000 feet AGL
Weather: BR  (mist)

METAR text: EHEH 062017Z AUTO 00000KT 4900 R03/2200D BR NCD 01/M00 Q1040 GRN BECMG 3500 BR MIFG
Conditions at: EHEH (EINDHOVEN RNLAFB, NL) observed 2017 UTC 06 February 2023
Temperature: 1.0°C (34°F)
Dewpoint: 0.0°C (32°F) [RH = 93%]
Pressure (altimeter): 30.71 inches Hg (1040.0 mb)
Winds: calm
Visibility: 3 miles ( 5 km)
Ceiling: at least 12,000 feet AGL
Clouds: sky clear below 12,000 feet AGL
Weather: BR  (mist)

METAR text: EHEH 062012Z AUTO 00000KT 1900 R03/2000D BR NCD 00/M00 Q1040 YLO BECMG 3500 BR MIFG
Conditions at: EHEH (EINDHOVEN RNLAFB, NL) observed 2012 UTC 06 February 2023
Temperature: 0.0°C (32°F)
Dewpoint: 0.0°C (32°F) [RH = 100%]
Pressure (altimeter): 30.71 inches Hg (1040.0 mb)
Winds: calm
Visibility: 1.18 miles (1.90 km)
Ceiling: at least 12,000 feet AGL
Clouds: sky clear below 12,000 feet AGL
Weather: BR  (mist)

METAR text: EHEH 062009Z AUTO 00000KT 0800 R03/2800U FG NCD 00/M00 Q1040 AMB BECMG 3500 BR MIFG
Conditions at: EHEH (EINDHOVEN RNLAFB, NL) observed 2009 UTC 06 February 2023
Temperature: 0.0°C (32°F)
Dewpoint: 0.0°C (32°F) [RH = 100%]
Pressure (altimeter): 30.71 inches Hg (1040.0 mb)
Winds: calm
Visibility: 0.50 miles (0.80 km)
Ceiling: at least 12,000 feet AGL
Clouds: sky clear below 12,000 feet AGL
Weather: FG  (fog)

METAR text: EHEH 061956Z AUTO VRB01KT 4300 R03/2300D BR NCD 01/01 Q1040 GRN BECMG 3500 BR MIFG
Conditions at: EHEH (EINDHOVEN RNLAFB, NL) observed 1956 UTC 06 February 2023
Temperature: 1.0°C (34°F)
Dewpoint: 1.0°C (34°F) [RH = 100%]
Pressure (altimeter): 30.71 inches Hg (1040.0 mb)
Winds: variable direction winds at 1 MPH (1 knots; 0.5 m/s)
Visibility: 2.67 miles (4.30 km)
Ceiling: at least 12,000 feet AGL
Clouds: sky clear below 12,000 feet AGL
Weather: BR  (mist)

METAR text: EHEH 061955Z AUTO VRB01KT 2600 R03/2000D BR NCD 01/01 Q1040 YLO BECMG 3500 BR MIFG
Conditions at: EHEH (EINDHOVEN RNLAFB, NL) observed 1955 UTC 06 February 2023
Temperature: 1.0°C (34°F)
Dewpoint: 1.0°C (34°F) [RH = 100%]
Pressure (altimeter): 30.71 inches Hg (1040.0 mb)
Winds: variable direction winds at 1 MPH (1 knots; 0.5 m/s)
Visibility: 1.62 miles (2.61 km)
Ceiling: at least 12,000 feet AGL
Clouds: sky clear below 12,000 feet AGL
Weather: BR  (mist)

METAR text: EHEH 061942Z AUTO 00000KT 3000 R03/P3000D BR NCD 01/01 Q1039 YLO BECMG 3500 BR MIFG
Conditions at: EHEH (EINDHOVEN RNLAFB, NL) observed 1942 UTC 06 February 2023
Temperature: 1.0°C (34°F)
Dewpoint: 1.0°C (34°F) [RH = 100%]
Pressure (altimeter): 30.68 inches Hg (1039.0 mb)
Winds: calm
Visibility: 1.86 miles (2.99 km)
Ceiling: at least 12,000 feet AGL
Clouds: sky clear below 12,000 feet AGL
Weather: BR  (mist)

METAR text: EHEH 061938Z AUTO 00000KT 5000 BR NCD 01/01 Q1039 WHT BECMG 3500 BR MIFG
Conditions at: EHEH (EINDHOVEN RNLAFB, NL) observed 1938 UTC 06 February 2023
Temperature: 1.0°C (34°F)
Dewpoint: 1.0°C (34°F) [RH = 100%]
Pressure (altimeter): 30.68 inches Hg (1039.0 mb)
Winds: calm
Visibility: 3 miles ( 5 km)
Ceiling: at least 12,000 feet AGL
Clouds: sky clear below 12,000 feet AGL
Weather: BR  (mist)

METAR text: EHEH 061934Z AUTO VRB01KT 4000 BR NCD 01/00 Q1039 GRN BECMG 3500 BR MIFG
Conditions at: EHEH (EINDHOVEN RNLAFB, NL) observed 1934 UTC 06 February 2023
Temperature: 1.0°C (34°F)
Dewpoint: 0.0°C (32°F) [RH = 93%]
Pressure (altimeter): 30.68 inches Hg (1039.0 mb)
Winds: variable direction winds at 1 MPH (1 knots; 0.5 m/s)
Visibility: 2.49 miles (4.01 km)
Ceiling: at least 12,000 feet AGL
Clouds: sky clear below 12,000 feet AGL
Weather: BR  (mist)

Forecast for: EHEH (EINDHOVEN RNLAFB, NL)
Text: TAF EHEH 061748Z 0618/0724 07004KT 9999 BKN030
Forecast period: 1800 to 1900 UTC 06 February 2023
Forecast type: FROM: standard forecast or significant change
Winds: from the ENE (70 degrees) at 5 MPH (4 knots; 2.1 m/s)
Visibility: 6 or more miles (10+ km)
Ceiling: 3000 feet AGL
Clouds: broken clouds at 3000 feet AGL
Weather: no significant weather forecast for this period
Text: BECMG 0619/0621 3500 BR MIFG
Forecast period: 1900 UTC 06 February 2023 to 0800 UTC 07 February 2023
Forecast type: BECOMING: Conditions expected to become as follows by 2100 UTC 06 February 2023
Winds: from the ENE (70 degrees) at 5 MPH (4 knots; 2.1 m/s)
Visibility: 2.17 miles (3.49 km)
Ceiling: 3000 feet AGL
Clouds: broken clouds at 3000 feet AGL
Weather: BR MIFG  (mist, shallow fog)
Text: TEMPO 0621/0709 1200 BCFG
Forecast period: 2100 UTC 06 February 2023 to 0900 UTC 07 February 2023
Forecast type: TEMPORARY: The following changes expected for less than half the time period
Visibility: 0.75 miles (1.21 km)
Ceiling: unknown
Clouds: missing
Weather: BCFG  (patches of fog)
Text: PROB40
Forecast period: 2100 UTC 06 February 2023 to 0200 UTC 07 February 2023
Forecast type: TEMPORARY: The following changes expected for less than half the time period
Visibility: missing
Ceiling: 1400 feet AGL
Clouds: scattered clouds at 1000 feet AGL
broken clouds at 1400 feet AGL
Weather: no significant weather forecast for this period
Text: TEMPO 0621/0702 SCT010 BKN014
Forecast period: 2100 UTC 06 February 2023 to 0900 UTC 07 February 2023
Forecast type: PROBABLE: 30 percent likelihood of the following during this time
Visibility: 0.25 miles (0.40 km)
Ceiling: 100 feet AGL
Clouds: broken clouds at 100 feet AGL
Weather: FZFG  (freezing fog)
Text: PROB30 0621/0709 0400 FZFG BKN001
Forecast period: 0800 UTC 07 February 2023 to 0000 UTC 08 February 2023
Forecast type: BECOMING: Conditions expected to become as follows by 1100 UTC 07 February 2023
Winds: from the ENE (70 degrees) at 5 MPH (4 knots; 2.1 m/s)
Visibility: 6 or more miles (10+ km)
Ceiling: unknown
Clouds: missing
Weather: NSW  (no significant weather)